createdAt,value
2022-08-17T00:00:43.332Z,4.07
2022-08-17T00:01:52.062Z,2.87
2022-08-17T00:02:59.751Z,3.43
2022-08-17T00:04:13.024Z,3.23
2022-08-17T00:05:19.763Z,3.27
2022-08-17T00:06:24.985Z,3.87
2022-08-17T00:07:34.042Z,3.63
2022-08-17T00:08:41.887Z,2.50
2022-08-17T00:09:45.522Z,2.73
2022-08-17T00:10:49.401Z,3.73
2022-08-17T00:12:40.661Z,3.30
2022-08-17T00:13:26.066Z,4.00
2022-08-17T00:14:29.064Z,3.80
2022-08-17T00:15:32.642Z,3.30
2022-08-17T00:16:55.569Z,3.67
2022-08-17T00:18:01.105Z,2.53
2022-08-17T00:19:34.084Z,3.57
2022-08-17T00:20:36.684Z,2.83
2022-08-17T00:22:32.060Z,3.20
2022-08-17T00:23:21.064Z,2.70
2022-08-17T00:24:30.062Z,4.17
2022-08-17T00:25:33.584Z,3.23
2022-08-17T00:26:44.708Z,3.53
2022-08-17T00:27:48.763Z,3.37
2022-08-17T00:28:59.023Z,4.03
2022-08-17T00:30:26.066Z,3.83
2022-08-17T00:31:28.883Z,3.70
2022-08-17T00:33:14.905Z,3.77
2022-08-17T00:34:10.105Z,3.90
2022-08-17T00:35:13.783Z,4.27
2022-08-17T00:36:18.151Z,3.83
2022-08-17T00:37:31.662Z,3.97
2022-08-17T00:38:36.082Z,3.70
2022-08-17T00:39:38.730Z,5.07
2022-08-17T00:40:44.886Z,5.20
2022-08-17T00:41:48.624Z,5.50
2022-08-17T00:42:57.082Z,4.20
2022-08-17T00:44:03.182Z,6.50
2022-08-17T00:45:13.043Z,4.83
2022-08-17T00:46:18.542Z,4.40
2022-08-17T00:47:20.868Z,3.50
2022-08-17T00:48:29.625Z,4.03
2022-08-17T00:49:33.306Z,4.17
2022-08-17T00:50:44.083Z,3.43
2022-08-17T00:51:51.682Z,3.80
2022-08-17T00:53:04.041Z,4.00
2022-08-17T00:54:09.483Z,2.83
2022-08-17T00:55:13.301Z,3.20
2022-08-17T00:56:18.163Z,4.57
2022-08-17T00:57:23.342Z,4.17
2022-08-17T00:58:36.395Z,4.73
2022-08-17T00:59:43.100Z,4.23
2022-08-17T01:00:46.999Z,4.30
2022-08-17T01:01:52.081Z,3.93
2022-08-17T01:02:56.752Z,3.93
2022-08-17T01:04:07.064Z,3.77
2022-08-17T01:05:10.584Z,4.67
2022-08-17T01:06:21.082Z,3.57
2022-08-17T01:07:27.242Z,3.90
2022-08-17T01:08:32.064Z,3.97
2022-08-17T01:09:34.899Z,4.70
2022-08-17T01:10:58.444Z,4.40
2022-08-17T01:12:10.057Z,3.20
2022-08-17T01:13:14.716Z,3.53
2022-08-17T01:14:19.396Z,4.13
2022-08-17T01:15:24.507Z,4.03
2022-08-17T01:16:35.179Z,3.87
2022-08-17T01:17:45.068Z,3.60
2022-08-17T01:18:48.986Z,4.77
2022-08-17T01:19:52.507Z,5.50
2022-08-17T01:20:55.937Z,4.90
2022-08-17T01:22:02.786Z,4.00
2022-08-17T01:23:13.066Z,4.47
2022-08-17T01:24:24.649Z,3.17
2022-08-17T01:25:28.518Z,5.00
2022-08-17T01:26:32.879Z,4.00
2022-08-17T01:27:43.005Z,3.33
2022-08-17T01:28:53.888Z,3.60
2022-08-17T01:30:57.777Z,3.10
2022-08-17T01:31:45.638Z,4.20
2022-08-17T01:32:56.057Z,3.10
2022-08-17T01:33:59.695Z,3.80
2022-08-17T01:35:06.137Z,3.23
2022-08-17T01:36:09.317Z,3.27
2022-08-17T01:37:13.355Z,3.80
2022-08-17T01:38:27.007Z,3.43
2022-08-17T01:39:38.075Z,3.10
2022-08-17T01:40:44.896Z,4.20
2022-08-17T01:41:47.566Z,4.03
2022-08-17T01:42:53.988Z,4.60
2022-08-17T01:44:05.072Z,4.20
2022-08-17T01:45:10.939Z,3.80
2022-08-17T01:46:15.899Z,3.30
2022-08-17T01:47:19.316Z,3.40
2022-08-17T01:48:22.008Z,4.13
2022-08-17T01:49:32.055Z,3.50
2022-08-17T01:50:38.907Z,3.53
2022-08-17T01:51:42.500Z,4.27
2022-08-17T01:52:46.192Z,4.27
2022-08-17T01:53:53.415Z,4.97
2022-08-17T01:55:03.070Z,3.70
2022-08-17T01:56:08.841Z,2.90
2022-08-17T01:57:11.508Z,3.73
2022-08-17T01:58:15.376Z,4.50
2022-08-17T01:59:25.186Z,3.93
2022-08-17T02:00:58.178Z,2.77
2022-08-17T02:01:53.028Z,2.40
2022-08-17T02:02:56.508Z,2.97
2022-08-17T02:04:06.065Z,3.07
2022-08-17T02:05:10.057Z,3.43
2022-08-17T02:06:27.978Z,3.77
2022-08-17T02:07:31.750Z,3.03
2022-08-17T02:09:02.636Z,3.20
2022-08-17T02:10:19.962Z,3.67
2022-08-17T02:11:23.434Z,3.33
2022-08-17T02:12:37.852Z,3.93
2022-08-17T02:13:42.226Z,3.10
2022-08-17T02:14:53.123Z,3.13
2022-08-17T02:15:55.561Z,2.83
2022-08-17T02:16:59.015Z,2.87
2022-08-17T02:18:08.070Z,2.77
2022-08-17T02:19:12.976Z,3.73
2022-08-17T02:20:42.067Z,2.43
2022-08-17T02:21:47.240Z,3.07
2022-08-17T02:22:50.817Z,3.30
2022-08-17T02:23:56.555Z,3.17
2022-08-17T02:25:02.171Z,3.57
2022-08-17T02:26:23.874Z,2.77
2022-08-17T02:27:28.813Z,3.03
2022-08-17T02:28:32.558Z,3.10
2022-08-17T02:29:35.059Z,2.70
2022-08-17T02:31:01.105Z,4.40
2022-08-17T02:32:12.203Z,3.27
2022-08-17T02:33:42.119Z,2.90
2022-08-17T02:34:47.333Z,2.63
2022-08-17T02:35:57.126Z,3.30
2022-08-17T02:37:00.683Z,3.43
2022-08-17T02:38:04.623Z,3.07
2022-08-17T02:39:10.345Z,3.07
2022-08-17T02:40:13.174Z,3.07
2022-08-17T02:41:24.165Z,3.40
2022-08-17T02:42:28.064Z,2.50
2022-08-17T02:43:31.663Z,2.17
2022-08-17T02:44:39.074Z,2.20
2022-08-17T02:45:44.204Z,3.10
2022-08-17T02:46:53.124Z,2.40
2022-08-17T02:47:56.584Z,3.90
2022-08-17T02:48:59.223Z,3.50
2022-08-17T02:50:03.033Z,3.60
2022-08-17T02:51:05.611Z,4.27
2022-08-17T02:52:16.102Z,3.30
2022-08-17T02:53:46.123Z,3.70
2022-08-17T02:54:49.932Z,2.50
2022-08-17T02:55:53.485Z,2.97
2022-08-17T02:56:55.982Z,3.47
2022-08-17T02:57:59.511Z,3.20
2022-08-17T02:59:09.082Z,3.13
2022-08-17T03:00:14.202Z,2.60
2022-08-17T03:01:16.871Z,3.00
2022-08-17T03:02:20.465Z,2.87
2022-08-17T03:03:29.163Z,2.80
2022-08-17T03:04:34.879Z,2.43
2022-08-17T03:05:38.964Z,2.83
2022-08-17T03:06:42.486Z,2.50
2022-08-17T03:07:45.367Z,3.70
2022-08-17T03:08:55.143Z,3.30
2022-08-17T03:09:59.365Z,3.07
2022-08-17T03:11:03.183Z,3.53
2022-08-17T03:12:07.285Z,2.87
2022-08-17T03:13:10.902Z,3.50
2022-08-17T03:14:20.126Z,3.77
2022-08-17T03:15:38.121Z,2.70
2022-08-17T03:16:46.403Z,2.73
2022-08-17T03:17:49.987Z,4.73
2022-08-17T03:18:52.523Z,3.40
2022-08-17T03:20:02.183Z,3.53
2022-08-17T03:21:09.584Z,3.73
2022-08-17T03:22:36.022Z,3.33
2022-08-17T03:23:42.303Z,3.70
2022-08-17T03:24:52.002Z,2.23
2022-08-17T03:26:05.143Z,3.60
2022-08-17T03:27:14.770Z,2.90
2022-08-17T03:28:18.222Z,3.40
2022-08-17T03:29:20.832Z,4.50
2022-08-17T03:30:31.363Z,4.13
2022-08-17T03:31:48.103Z,4.00
2022-08-17T03:32:51.954Z,3.07
2022-08-17T03:33:56.473Z,3.13
2022-08-17T03:35:00.343Z,3.37
2022-08-17T03:36:04.151Z,3.10
2022-08-17T03:37:14.091Z,2.47
2022-08-17T03:38:17.367Z,3.57
2022-08-17T03:39:21.021Z,3.17
2022-08-17T03:40:34.529Z,3.33
2022-08-17T03:41:55.132Z,4.20
2022-08-17T03:42:57.673Z,2.30
2022-08-17T03:44:01.192Z,2.23
2022-08-17T03:45:04.453Z,2.97
2022-08-17T03:46:34.178Z,2.57
2022-08-17T03:47:56.571Z,2.80
2022-08-17T03:49:17.863Z,3.47
2022-08-17T03:50:38.582Z,2.67
2022-08-17T03:52:06.172Z,2.73
2022-08-17T03:53:29.002Z,2.93
2022-08-17T03:54:50.140Z,3.17
2022-08-17T03:56:11.517Z,2.67
2022-08-17T03:57:23.114Z,4.23
2022-08-17T03:58:25.723Z,2.60
2022-08-17T03:59:29.361Z,2.67
2022-08-17T04:00:39.738Z,2.80
2022-08-17T04:01:44.002Z,2.33
2022-08-17T04:02:46.652Z,3.17
2022-08-17T04:03:50.202Z,3.60
2022-08-17T04:05:01.133Z,2.87
2022-08-17T04:06:03.759Z,3.53
2022-08-17T04:07:07.513Z,2.50
2022-08-17T04:08:10.582Z,3.03
2022-08-17T04:09:13.902Z,2.30
2022-08-17T04:10:26.370Z,2.43
2022-08-17T04:11:30.031Z,2.53
2022-08-17T04:12:43.831Z,3.20
2022-08-17T04:13:47.353Z,2.23
2022-08-17T04:14:52.930Z,2.87
2022-08-17T04:16:06.162Z,2.93
2022-08-17T04:17:08.675Z,3.03
2022-08-17T04:18:12.140Z,3.83
2022-08-17T04:19:14.674Z,3.40
2022-08-17T04:20:19.737Z,3.47
2022-08-17T04:21:29.141Z,2.80
2022-08-17T04:22:34.426Z,2.33
2022-08-17T04:23:37.883Z,2.03
2022-08-17T04:24:41.332Z,4.00
2022-08-17T04:25:52.137Z,3.03
2022-08-17T04:26:58.034Z,2.90
2022-08-17T04:28:02.742Z,3.00
2022-08-17T04:29:06.251Z,2.53
2022-08-17T04:30:16.610Z,2.90
2022-08-17T04:31:29.423Z,2.50
2022-08-17T04:33:05.221Z,2.70
2022-08-17T04:33:55.710Z,3.67
2022-08-17T04:34:58.249Z,3.70
2022-08-17T04:36:09.121Z,2.43
2022-08-17T04:37:11.633Z,3.43
2022-08-17T04:38:16.583Z,3.57
2022-08-17T04:39:19.062Z,3.20
2022-08-17T04:40:48.333Z,2.83
2022-08-17T04:42:09.354Z,2.47
2022-08-17T04:43:15.003Z,2.40
2022-08-17T04:44:36.904Z,4.63
2022-08-17T04:45:55.111Z,3.07
2022-08-17T04:47:07.167Z,3.17
2022-08-17T04:48:21.170Z,3.60
2022-08-17T04:49:25.301Z,2.80
2022-08-17T04:50:29.292Z,3.47
2022-08-17T04:51:47.925Z,3.03
2022-08-17T04:52:58.399Z,3.03
2022-08-17T04:54:11.144Z,3.90
2022-08-17T04:55:13.613Z,3.27
2022-08-17T04:56:19.203Z,3.50
2022-08-17T04:57:22.829Z,4.00
2022-08-17T04:58:33.200Z,3.00
2022-08-17T04:59:37.165Z,2.57
2022-08-17T05:00:40.102Z,3.23
2022-08-17T05:01:45.527Z,3.83
2022-08-17T05:02:49.644Z,3.67
2022-08-17T05:04:00.223Z,3.57
2022-08-17T05:05:22.501Z,1.97
2022-08-17T05:06:26.171Z,2.13
2022-08-17T05:07:31.585Z,3.87
2022-08-17T05:08:35.510Z,4.13
2022-08-17T05:09:45.453Z,3.83
2022-08-17T05:10:48.554Z,3.33
2022-08-17T05:11:52.066Z,4.60
2022-08-17T05:12:58.851Z,3.20
2022-08-17T05:14:04.053Z,4.03
2022-08-17T05:15:18.164Z,2.80
2022-08-17T05:16:23.783Z,4.27
2022-08-17T05:17:26.314Z,3.23
2022-08-17T05:18:30.817Z,3.27
2022-08-17T05:19:40.169Z,2.80
2022-08-17T05:20:42.803Z,4.03
2022-08-17T05:21:53.115Z,3.70
2022-08-17T05:22:56.388Z,3.40
2022-08-17T05:23:59.763Z,3.60
2022-08-17T05:25:02.777Z,2.90
2022-08-17T05:26:07.916Z,4.17
2022-08-17T05:27:21.129Z,3.47
2022-08-17T05:28:28.454Z,3.20
2022-08-17T05:29:34.451Z,3.13
2022-08-17T05:30:45.951Z,3.60
2022-08-17T05:32:00.163Z,3.67
2022-08-17T05:33:04.061Z,3.57
2022-08-17T05:34:08.085Z,3.07
2022-08-17T05:35:11.038Z,3.53
2022-08-17T05:36:42.546Z,4.30
2022-08-17T05:37:45.695Z,3.00
2022-08-17T05:38:49.644Z,4.17
2022-08-17T05:39:52.194Z,2.73
2022-08-17T05:41:02.244Z,2.17
2022-08-17T05:42:05.803Z,4.57
2022-08-17T05:43:09.852Z,2.77
2022-08-17T05:44:13.291Z,2.67
2022-08-17T05:45:39.866Z,3.80
2022-08-17T05:46:50.176Z,3.27
2022-08-17T05:47:59.202Z,3.33
2022-08-17T05:49:04.355Z,3.17
2022-08-17T05:50:09.882Z,2.73
2022-08-17T05:51:28.905Z,2.50
2022-08-17T05:52:37.072Z,2.87
2022-08-17T05:53:51.157Z,2.73
2022-08-17T05:55:08.242Z,3.27
2022-08-17T05:56:28.002Z,2.33
2022-08-17T05:58:01.108Z,3.53
2022-08-17T05:59:06.117Z,1.93
2022-08-17T06:00:21.171Z,2.40
2022-08-17T06:01:35.201Z,2.33
2022-08-17T06:02:47.525Z,4.17
2022-08-17T06:04:02.373Z,2.13
2022-08-17T06:05:11.310Z,3.40
2022-08-17T06:06:25.179Z,3.20
2022-08-17T06:07:36.732Z,2.57
2022-08-17T06:08:54.231Z,2.20
2022-08-17T06:10:02.583Z,2.87
2022-08-17T06:11:11.534Z,3.70
2022-08-17T06:12:30.366Z,3.80
2022-08-17T06:13:49.333Z,5.10
2022-08-17T06:15:00.110Z,3.20
2022-08-17T06:16:05.273Z,3.40
2022-08-17T06:17:31.307Z,1.90
2022-08-17T06:18:37.713Z,2.77
2022-08-17T06:19:49.382Z,3.73
2022-08-17T06:20:53.552Z,2.20
2022-08-17T06:21:58.127Z,3.57
2022-08-17T06:23:05.473Z,3.00
2022-08-17T06:24:24.060Z,3.60
2022-08-17T06:25:36.185Z,2.67
2022-08-17T06:26:43.463Z,3.33
2022-08-17T06:27:55.355Z,3.27
2022-08-17T06:29:01.311Z,2.50
2022-08-17T06:30:09.366Z,4.73
2022-08-17T06:31:23.682Z,2.93
2022-08-17T06:32:36.053Z,3.63
2022-08-17T06:33:47.323Z,3.07
2022-08-17T06:34:49.938Z,2.47
2022-08-17T06:36:02.575Z,2.70
2022-08-17T06:37:29.358Z,2.43
2022-08-17T06:38:38.857Z,3.00
2022-08-17T06:39:50.615Z,3.00
2022-08-17T06:41:00.060Z,3.67
2022-08-17T06:43:02.398Z,3.70
2022-08-17T06:43:48.266Z,3.17
2022-08-17T06:44:55.333Z,2.47
2022-08-17T06:46:01.777Z,3.73
2022-08-17T06:47:28.635Z,2.67
2022-08-17T06:48:44.538Z,2.37
2022-08-17T06:49:55.202Z,3.27
2022-08-17T06:51:01.678Z,1.70
2022-08-17T06:52:09.903Z,2.03
2022-08-17T06:53:37.302Z,2.70
2022-08-17T06:54:53.215Z,3.00
2022-08-17T06:55:59.900Z,4.03
2022-08-17T06:57:07.265Z,3.00
2022-08-17T06:58:18.213Z,2.73
2022-08-17T06:59:23.232Z,2.73
2022-08-17T07:00:36.220Z,2.10
2022-08-17T07:01:40.428Z,2.33
2022-08-17T07:03:02.378Z,2.63
2022-08-17T07:04:12.025Z,2.17
2022-08-17T07:05:23.159Z,2.83
2022-08-17T07:06:37.939Z,2.27
2022-08-17T07:07:59.759Z,2.27
2022-08-17T07:09:14.254Z,2.13
2022-08-17T07:10:17.404Z,1.97
2022-08-17T07:11:29.219Z,3.13
2022-08-17T07:12:38.441Z,1.63
2022-08-17T07:13:52.210Z,3.70
2022-08-17T07:14:57.311Z,2.23
2022-08-17T07:16:04.744Z,2.63
2022-08-17T07:17:09.207Z,3.13
2022-08-17T07:18:11.959Z,2.50
2022-08-17T07:19:24.222Z,3.23
2022-08-17T07:20:27.803Z,2.37
2022-08-17T07:21:38.628Z,2.33
2022-08-17T07:22:57.417Z,2.47
2022-08-17T07:24:08.886Z,1.77
2022-08-17T07:25:21.200Z,2.47
2022-08-17T07:26:24.527Z,2.77
2022-08-17T07:27:30.664Z,2.90
2022-08-17T07:28:34.221Z,1.70
2022-08-17T07:29:39.946Z,2.13
2022-08-17T07:30:51.212Z,2.67
2022-08-17T07:32:02.854Z,2.33
2022-08-17T07:33:21.283Z,2.43
2022-08-17T07:34:25.199Z,2.43
2022-08-17T07:35:40.862Z,1.67
2022-08-17T07:36:47.027Z,2.90
2022-08-17T07:37:54.460Z,2.57
2022-08-17T07:39:05.376Z,2.00
2022-08-17T07:40:26.488Z,2.23
2022-08-17T07:41:57.423Z,2.63
2022-08-17T07:43:29.401Z,2.53
2022-08-17T07:44:54.954Z,2.70
2022-08-17T07:46:18.075Z,2.37
2022-08-17T07:47:39.845Z,2.33
2022-08-17T07:48:50.596Z,5.93
2022-08-17T07:49:55.016Z,4.97
2022-08-17T07:51:00.159Z,3.57
2022-08-17T07:52:13.530Z,2.63
2022-08-17T07:53:31.386Z,3.67
2022-08-17T07:54:43.211Z,2.80
2022-08-17T07:55:46.063Z,3.57
2022-08-17T07:56:52.569Z,2.77
2022-08-17T07:57:57.513Z,3.60
2022-08-17T07:59:09.619Z,3.93
2022-08-17T08:00:32.466Z,2.23
2022-08-17T08:01:39.559Z,2.77
2022-08-17T08:02:58.576Z,3.30
2022-08-17T08:04:01.498Z,3.17
2022-08-17T08:05:25.066Z,3.33
2022-08-17T08:06:48.863Z,4.03
2022-08-17T08:07:55.105Z,2.93
2022-08-17T08:09:00.682Z,3.23
2022-08-17T08:10:11.873Z,3.53
2022-08-17T08:11:22.252Z,2.90
2022-08-17T08:12:33.494Z,2.50
2022-08-17T08:13:42.435Z,3.30
2022-08-17T08:14:55.376Z,3.30
2022-08-17T08:16:27.247Z,2.20
2022-08-17T08:17:35.573Z,2.00
2022-08-17T08:18:55.015Z,2.60
2022-08-17T08:20:01.766Z,2.43
2022-08-17T08:21:39.246Z,2.23
2022-08-17T08:22:54.205Z,2.20
2022-08-17T08:24:01.542Z,2.40
2022-08-17T08:25:09.180Z,2.20
2022-08-17T08:26:21.412Z,2.00
2022-08-17T08:27:43.254Z,1.73
2022-08-17T08:28:54.769Z,2.77
2022-08-17T08:30:05.455Z,3.23
2022-08-17T08:31:17.503Z,2.73
2022-08-17T08:32:41.404Z,2.80
2022-08-17T08:33:52.013Z,3.07
2022-08-17T08:35:02.743Z,2.37
2022-08-17T08:36:13.353Z,1.77
2022-08-17T08:37:53.288Z,2.50
2022-08-17T08:39:04.700Z,2.88
2022-08-17T08:40:18.112Z,2.20
2022-08-17T08:41:32.267Z,2.17
2022-08-17T08:42:46.656Z,2.67
2022-08-17T08:44:10.378Z,2.40
2022-08-17T08:45:17.942Z,2.53
2022-08-17T08:46:30.380Z,2.65
2022-08-17T08:47:51.647Z,3.22
2022-08-17T08:50:02.144Z,3.13
2022-08-17T08:51:06.457Z,2.28
2022-08-17T08:52:22.011Z,2.28
2022-08-17T08:53:37.452Z,1.90
2022-08-17T08:54:56.414Z,2.50
2022-08-17T08:56:05.727Z,1.85
2022-08-17T08:57:29.431Z,1.88
2022-08-17T08:58:50.625Z,2.20
2022-08-17T09:00:06.861Z,2.47
2022-08-17T09:01:18.291Z,2.17
2022-08-17T09:02:41.432Z,1.55
2022-08-17T09:04:24.042Z,1.88
2022-08-17T09:05:40.194Z,2.35
2022-08-17T09:07:06.238Z,2.45
2022-08-17T09:08:23.244Z,2.03
2022-08-17T09:09:40.513Z,2.63
2022-08-17T09:10:56.982Z,2.50
2022-08-17T09:12:08.917Z,2.50
2022-08-17T09:13:25.424Z,2.25
2022-08-17T09:14:46.812Z,1.70
2022-08-17T09:15:57.854Z,1.88
2022-08-17T09:17:03.863Z,2.00
2022-08-17T09:19:00.480Z,1.77
2022-08-17T09:19:50.272Z,2.03
2022-08-17T09:20:57.722Z,2.45
2022-08-17T09:22:12.032Z,1.77
2022-08-17T09:23:20.692Z,2.05
2022-08-17T09:24:32.950Z,2.15
2022-08-17T09:25:56.234Z,1.77
2022-08-17T09:27:03.502Z,2.25
2022-08-17T09:28:09.969Z,2.00
2022-08-17T09:29:22.226Z,2.13
2022-08-17T09:30:27.054Z,1.98
2022-08-17T09:31:49.181Z,2.17
2022-08-17T09:33:02.222Z,2.05
2022-08-17T09:34:10.636Z,1.77
2022-08-17T09:35:19.539Z,1.70
2022-08-17T09:36:26.119Z,1.75
2022-08-17T09:37:40.429Z,1.77
2022-08-17T09:38:53.775Z,1.85
2022-08-17T09:40:11.104Z,2.13
2022-08-17T09:41:18.206Z,2.60
2022-08-17T09:42:34.397Z,1.92
2022-08-17T09:43:44.741Z,2.67
2022-08-17T09:44:55.658Z,2.35
2022-08-17T09:46:04.140Z,1.95
2022-08-17T09:47:19.420Z,2.25
2022-08-17T09:48:28.519Z,2.30
2022-08-17T09:49:44.245Z,2.42
2022-08-17T09:51:05.910Z,1.77
2022-08-17T09:52:17.884Z,2.20
2022-08-17T09:53:20.668Z,2.03
2022-08-17T09:54:39.165Z,2.90
2022-08-17T09:56:19.249Z,2.00
2022-08-17T09:57:36.745Z,1.63
2022-08-17T09:58:49.702Z,1.52
2022-08-17T10:00:06.528Z,2.67
2022-08-17T10:01:29.109Z,2.47
2022-08-17T10:02:51.562Z,1.45
2022-08-17T10:04:17.759Z,1.15
2022-08-17T10:05:34.281Z,2.17
2022-08-17T10:06:48.711Z,2.15
2022-08-17T10:07:57.504Z,2.17
2022-08-17T10:09:08.343Z,2.75
2022-08-17T10:10:22.478Z,2.00
2022-08-17T10:11:55.427Z,2.17
2022-08-17T10:13:05.843Z,2.28
2022-08-17T10:14:37.484Z,1.75
2022-08-17T10:15:54.604Z,2.50
2022-08-17T10:17:11.289Z,2.28
2022-08-17T10:18:37.948Z,2.00
2022-08-17T10:19:49.710Z,2.28
2022-08-17T10:21:14.793Z,1.98
2022-08-17T10:22:53.248Z,2.25
2022-08-17T10:24:24.791Z,1.88
2022-08-17T10:25:54.973Z,2.47
2022-08-17T10:27:03.363Z,2.55
2022-08-17T10:28:20.390Z,2.42
2022-08-17T10:29:34.154Z,1.85
2022-08-17T10:31:34.428Z,2.10
2022-08-17T10:32:46.222Z,2.35
2022-08-17T10:34:09.275Z,2.55
2022-08-17T10:35:30.929Z,3.33
2022-08-17T10:36:46.122Z,2.65
2022-08-17T10:38:09.963Z,2.50
2022-08-17T10:39:32.681Z,2.95
2022-08-17T10:40:45.540Z,2.80
2022-08-17T10:41:54.119Z,2.90
2022-08-17T10:43:02.564Z,3.20
2022-08-17T10:44:40.425Z,2.30
2022-08-17T10:45:46.948Z,2.10
2022-08-17T10:47:01.664Z,2.08
2022-08-17T10:48:30.373Z,2.10
2022-08-17T10:49:40.294Z,2.25
2022-08-17T10:50:59.814Z,1.98
2022-08-17T10:52:26.229Z,2.42
2022-08-17T10:54:00.443Z,2.47
2022-08-17T10:55:21.475Z,1.83
2022-08-17T10:57:03.306Z,2.08
2022-08-17T10:58:31.758Z,1.98
2022-08-17T10:59:59.473Z,1.90
2022-08-17T11:01:04.106Z,2.17
2022-08-17T11:02:24.538Z,1.50
2022-08-17T11:03:28.783Z,2.38
2022-08-17T11:04:47.988Z,1.98
2022-08-17T11:05:59.246Z,1.80
2022-08-17T11:07:11.613Z,2.72
2022-08-17T11:08:44.483Z,2.55
2022-08-17T11:10:06.346Z,1.77
2022-08-17T11:11:36.094Z,1.60
2022-08-17T11:12:56.313Z,1.88
2022-08-17T11:14:21.608Z,2.80
2022-08-17T11:15:39.536Z,2.13
2022-08-17T11:16:53.683Z,2.28
2022-08-17T11:18:17.324Z,2.35
2022-08-17T11:19:56.347Z,2.65
2022-08-17T11:21:29.363Z,1.83
2022-08-17T11:23:04.991Z,2.78
2022-08-17T11:24:18.393Z,1.90
2022-08-17T11:25:39.488Z,2.67
2022-08-17T11:26:47.649Z,2.00
2022-08-17T11:27:53.955Z,1.98
2022-08-17T11:29:03.875Z,2.00
2022-08-17T11:30:12.288Z,2.20
2022-08-17T11:31:38.498Z,1.95
2022-08-17T11:32:54.773Z,2.35
2022-08-17T11:34:02.441Z,2.30
2022-08-17T11:35:37.347Z,2.72
2022-08-17T11:37:11.292Z,1.70
2022-08-17T11:38:28.383Z,2.10
2022-08-17T11:39:54.688Z,2.13
2022-08-17T11:41:17.608Z,2.40
2022-08-17T11:42:41.512Z,1.77
2022-08-17T11:44:04.255Z,1.92
2022-08-17T11:45:32.600Z,1.90
2022-08-17T11:47:08.844Z,2.10
2022-08-17T11:48:43.323Z,1.52
2022-08-17T11:50:13.674Z,1.95
2022-08-17T11:51:36.408Z,1.60
2022-08-17T11:52:44.538Z,1.77
2022-08-17T11:54:32.689Z,1.90
2022-08-17T11:56:04.113Z,2.15
2022-08-17T11:57:40.780Z,1.98
2022-08-17T11:58:46.481Z,1.88
2022-08-17T12:00:07.591Z,1.70
2022-08-17T12:01:16.151Z,2.08
2022-08-17T12:02:39.071Z,2.20
2022-08-17T12:03:54.063Z,1.83
2022-08-17T12:05:03.715Z,1.90
2022-08-17T12:06:24.357Z,1.73
2022-08-17T12:07:35.983Z,2.35
2022-08-17T12:08:43.461Z,1.90
2022-08-17T12:09:53.587Z,2.40
2022-08-17T12:11:08.522Z,1.85
2022-08-17T12:12:15.337Z,1.70
2022-08-17T12:13:19.261Z,1.70
2022-08-17T12:14:51.371Z,1.73
2022-08-17T12:16:03.382Z,2.67
2022-08-17T12:17:14.302Z,1.60
2022-08-17T12:18:31.281Z,2.30
2022-08-17T12:19:36.250Z,2.05
2022-08-17T12:20:42.872Z,1.90
2022-08-17T12:22:00.522Z,1.85
2022-08-17T12:23:10.846Z,2.70
2022-08-17T12:24:32.120Z,2.25
2022-08-17T12:25:46.327Z,1.98
2022-08-17T12:26:54.521Z,1.60
2022-08-17T12:28:05.121Z,1.88
2022-08-17T12:29:17.878Z,1.20
2022-08-17T12:30:47.581Z,1.70
2022-08-17T12:32:02.350Z,2.05
2022-08-17T12:33:25.707Z,1.95
2022-08-17T12:34:36.853Z,1.55
2022-08-17T12:35:40.512Z,1.65
2022-08-17T12:36:49.523Z,2.15
2022-08-17T12:37:53.404Z,1.67
2022-08-17T12:39:13.297Z,1.95
2022-08-17T12:40:22.494Z,1.70
2022-08-17T12:41:40.339Z,1.83
2022-08-17T12:42:55.254Z,1.63
2022-08-17T12:44:01.758Z,1.50
2022-08-17T12:45:07.741Z,1.85
2022-08-17T12:46:17.882Z,1.55
2022-08-17T12:47:29.361Z,2.17
2022-08-17T12:48:36.237Z,1.30
2022-08-17T12:49:42.430Z,1.70
2022-08-17T12:50:52.520Z,1.98
2022-08-17T12:52:08.941Z,1.58
2022-08-17T12:53:13.930Z,1.45
2022-08-17T12:54:28.902Z,1.73
2022-08-17T12:55:45.312Z,1.50
2022-08-17T12:56:48.759Z,1.27
2022-08-17T12:58:01.995Z,1.77
2022-08-17T12:59:07.260Z,1.80
2022-08-17T13:00:17.596Z,1.60
2022-08-17T13:01:20.687Z,1.27
2022-08-17T13:02:37.547Z,0.93
2022-08-17T13:03:45.252Z,1.23
2022-08-17T13:04:48.069Z,1.23
2022-08-17T13:06:00.806Z,1.50
2022-08-17T13:07:03.293Z,1.70
2022-08-17T13:08:23.481Z,1.60
2022-08-17T13:09:39.972Z,1.73
2022-08-17T13:10:44.424Z,1.48
2022-08-17T13:11:49.020Z,1.65
2022-08-17T13:12:53.692Z,1.38
2022-08-17T13:14:13.373Z,1.85
2022-08-17T13:15:23.200Z,1.23
2022-08-17T13:16:27.913Z,1.85
2022-08-17T13:17:35.743Z,1.60
2022-08-17T13:18:44.124Z,1.55
2022-08-17T13:19:57.336Z,1.40
2022-08-17T13:21:01.128Z,2.38
2022-08-17T13:22:10.554Z,1.33
2022-08-17T13:23:21.499Z,1.52
2022-08-17T13:24:38.206Z,1.60
2022-08-17T13:25:41.663Z,1.95
2022-08-17T13:26:54.326Z,1.95
2022-08-17T13:27:58.297Z,1.83
2022-08-17T13:29:01.424Z,1.50
2022-08-17T13:30:15.323Z,1.35
2022-08-17T13:31:29.902Z,2.20
2022-08-17T13:32:49.330Z,1.27
2022-08-17T13:34:11.521Z,1.50
2022-08-17T13:35:48.806Z,1.55
2022-08-17T13:37:15.154Z,1.88
2022-08-17T13:38:40.595Z,1.70
2022-08-17T13:39:44.027Z,1.48
2022-08-17T13:40:58.332Z,1.38
2022-08-17T13:42:00.458Z,1.60
2022-08-17T13:43:10.314Z,1.77
2022-08-17T13:44:31.818Z,2.00
2022-08-17T13:45:50.707Z,1.67
2022-08-17T13:46:55.890Z,1.52
2022-08-17T13:48:18.548Z,1.90
2022-08-17T13:49:23.663Z,1.70
2022-08-17T13:50:26.296Z,1.30
2022-08-17T13:51:33.620Z,1.63
2022-08-17T13:52:39.792Z,1.98
2022-08-17T13:54:03.324Z,1.98
2022-08-17T13:55:23.056Z,1.80
2022-08-17T13:56:43.435Z,1.77
2022-08-17T13:57:47.698Z,1.50
2022-08-17T13:59:02.369Z,1.52
2022-08-17T14:00:17.435Z,1.67
2022-08-17T14:01:29.924Z,1.40
2022-08-17T14:02:33.359Z,1.60
2022-08-17T14:03:35.800Z,1.55
2022-08-17T14:04:48.368Z,1.77
2022-08-17T14:05:52.435Z,1.08
2022-08-17T14:07:04.352Z,1.40
2022-08-17T14:08:07.927Z,2.15
2022-08-17T14:09:17.382Z,1.80
2022-08-17T14:10:25.170Z,1.50
2022-08-17T14:11:27.570Z,1.75
2022-08-17T14:12:33.253Z,1.70
2022-08-17T14:13:37.292Z,1.90
2022-08-17T14:14:49.343Z,2.22
2022-08-17T14:15:54.912Z,1.60
2022-08-17T14:16:59.816Z,1.70
2022-08-17T14:18:01.950Z,1.75
2022-08-17T14:19:05.912Z,1.67
2022-08-17T14:20:18.354Z,1.35
2022-08-17T14:21:21.632Z,2.20
2022-08-17T14:22:30.415Z,1.42
2022-08-17T14:23:37.675Z,1.52
2022-08-17T14:24:48.634Z,1.48
2022-08-17T14:25:52.243Z,1.83
2022-08-17T14:26:54.884Z,2.00
2022-08-17T14:27:59.033Z,1.98
2022-08-17T14:29:01.944Z,1.52
2022-08-17T14:30:12.400Z,1.60
2022-08-17T14:31:14.926Z,1.73
2022-08-17T14:32:28.573Z,1.30
2022-08-17T14:33:31.070Z,1.02
2022-08-17T14:34:34.493Z,1.45
2022-08-17T14:35:44.354Z,1.30
2022-08-17T14:36:48.567Z,1.20
2022-08-17T14:37:58.486Z,1.40
2022-08-17T14:39:01.983Z,1.95
2022-08-17T14:40:12.470Z,1.90
2022-08-17T14:41:21.448Z,1.88
2022-08-17T14:42:26.339Z,1.42
2022-08-17T14:43:28.834Z,1.40
2022-08-17T14:44:39.466Z,1.42
2022-08-17T14:45:41.932Z,2.05
2022-08-17T14:46:46.250Z,1.60
2022-08-17T14:47:48.927Z,1.90
2022-08-17T14:48:57.104Z,2.00
2022-08-17T14:50:08.817Z,1.60
2022-08-17T14:51:13.514Z,1.73
2022-08-17T14:52:21.801Z,1.30
2022-08-17T14:53:24.693Z,1.70
2022-08-17T14:54:34.208Z,1.77
2022-08-17T14:55:47.466Z,1.67
2022-08-17T14:56:57.003Z,1.40
2022-08-17T14:58:14.559Z,1.70
2022-08-17T14:59:18.003Z,1.40
2022-08-17T15:00:20.483Z,1.70
2022-08-17T15:01:31.481Z,2.30
2022-08-17T15:02:44.032Z,1.90
2022-08-17T15:03:47.413Z,1.95
2022-08-17T15:04:50.474Z,1.75
2022-08-17T15:06:00.412Z,1.77
2022-08-17T15:07:04.151Z,1.88
2022-08-17T15:08:08.041Z,1.80
2022-08-17T15:09:10.896Z,1.35
2022-08-17T15:10:15.844Z,1.80
2022-08-17T15:11:26.452Z,1.92
2022-08-17T15:12:32.749Z,1.88
2022-08-17T15:13:36.765Z,2.05
2022-08-17T15:14:55.215Z,1.90
2022-08-17T15:15:59.856Z,2.00
2022-08-17T15:17:09.424Z,1.60
2022-08-17T15:18:19.411Z,2.13
2022-08-17T15:19:21.843Z,1.98
2022-08-17T15:20:27.586Z,1.90
2022-08-17T15:21:31.083Z,2.05
2022-08-17T15:22:41.453Z,1.30
2022-08-17T15:23:44.823Z,1.92
2022-08-17T15:24:47.954Z,2.13
2022-08-17T15:25:53.412Z,1.45
2022-08-17T15:26:55.843Z,1.83
2022-08-17T15:28:09.443Z,1.50
2022-08-17T15:29:12.791Z,1.77
2022-08-17T15:30:15.810Z,1.80
2022-08-17T15:31:19.414Z,1.67
2022-08-17T15:32:51.489Z,2.22
2022-08-17T15:34:05.446Z,1.83
2022-08-17T15:35:12.449Z,1.90
2022-08-17T15:36:16.197Z,2.38
2022-08-17T15:37:18.655Z,1.55
2022-08-17T15:38:30.397Z,2.00
2022-08-17T15:39:33.022Z,2.58
2022-08-17T15:40:37.112Z,2.38
2022-08-17T15:41:40.784Z,2.38
2022-08-17T15:42:43.150Z,2.45
2022-08-17T15:43:53.386Z,1.80
2022-08-17T15:44:55.810Z,2.00
2022-08-17T15:46:07.386Z,1.88
2022-08-17T15:47:10.727Z,2.05
2022-08-17T15:48:14.908Z,2.67
2022-08-17T15:49:18.252Z,2.15
2022-08-17T15:50:20.620Z,2.55
2022-08-17T15:51:31.398Z,2.33
2022-08-17T15:52:37.987Z,3.30